logo
Search for airport 
image banner adimage banner adimage banner ad
image banner ad

SWQF - Miguel Dias Iii

Located in Guaramiranga, Brazil

ICAO - SWQF, IATA -

Data provided by Airmate  

General information

Coordinates: S4°14'18" W38°58'53"
Elevation is 3051 feet MSL.
Magnetic variation is -21° East
View others Airports in Ceará

Operational data

Special qualification required
Current time UTC:
Current local time:
Weather at : SBFZ - Fortaleza / Pinto Martins ( 72 km )
METAR: SBFZ 131600Z 08011KT 9999 VCSH SCT025 FEW030TCU 31/25 Q1009
TAF: TAF SBFZ 130900Z 1312/1412 18005KT 9999 SCT020 TX31/1316Z TN25/1408Z BECMG 1314/1316 10010KT PROB30 1317/1319 5000 RA BKN015 BECMG 1402/1404 23005KT FEW020 BECMG 1408/1410 18005KT RMK PHD
View NOTAMs / SUP AIP / TFR affecting this airport [VIEW]
Communications frequencies: [VIEW]

Runways:

Airport contact information

Address: Guaramiranga Brazil

Satellite view of SWQF